< Typhoon 201819 2018 Season Typhoon 201821 >
Typhoon 201820 (CIMARON)
General InformationTrack Information on Google MapsDetailed Wind InformationForecast History on Google MapsAccess Analytics MapList of All Images || NewsDisaster Info.WeblogTrackbackTyphoon FrontTwiphoonTyphoon Now!Typhoon ImaginationJMA Disaster Info. XMLResourceGoogle EarthGE AnimationAtom FeedGeoJSON
Detalied Best Track (Time Zone = UTC)
Year Month Day Hour Lat. Long. Pressure (hPa) Wind (kt) Class Image Chart
2018 8 16 12 11.3 160.3 1008 0 2 Image Chart
2018 8 16 18 11.7 159.6 1006 0 2 Image Chart
2018 8 17 00 12.0 158.9 1008 0 2 Image Chart
2018 8 17 06 12.2 158.1 1006 0 2 Image Chart
2018 8 17 12 12.5 156.9 1008 0 2 Image Chart
2018 8 17 18 12.9 155.5 1006 0 2 Image Chart
2018 8 18 00 13.3 154.6 1006 0 2 Image Chart
2018 8 18 06 13.7 154.3 1004 0 2 Image Chart
2018 8 18 12 14.0 153.9 1000 35 3 Image Chart
2018 8 18 18 14.4 153.2 998 35 3 Image Chart
2018 8 19 00 14.8 152.4 996 40 3 Image Chart
2018 8 19 06 15.3 151.7 992 45 3 Image Chart
2018 8 19 12 15.8 150.9 990 50 4 Image Chart
2018 8 19 18 16.4 150.0 985 55 4 Image Chart
2018 8 20 00 17.0 149.1 985 55 4 Image Chart
2018 8 20 06 17.7 148.2 985 55 4 Image Chart
2018 8 20 12 18.5 147.3 980 60 4 Image Chart
2018 8 20 18 19.2 146.3 980 60 4 Image Chart
2018 8 21 00 20.1 145.1 975 65 5 Image Chart
2018 8 21 06 21.2 144.1 970 70 5 Image Chart
2018 8 21 12 21.9 142.7 965 70 5 Image Chart
2018 8 21 18 23.1 141.4 960 75 5 Image Chart
2018 8 22 00 24.2 140.0 955 80 5 Image Chart
2018 8 22 06 25.5 138.8 950 85 5 Image Chart
2018 8 22 12 26.9 137.3 950 85 5 Image Chart
2018 8 22 15 27.6 136.6 950 85 5 Image Chart
2018 8 22 18 28.4 135.9 955 80 5 Image Chart
2018 8 22 21 29.0 135.4 955 80 5 Image Chart
2018 8 23 00 29.8 135.0 955 80 5 Image Chart
2018 8 23 03 31.0 134.7 955 80 5 Image Chart
2018 8 23 06 31.8 134.5 955 80 5 Image Chart
2018 8 23 09 32.8 134.5 965 75 5 Image Chart
2018 8 23 12 33.8 134.6 970 75 5 Image Chart
2018 8 23 14 34.6 134.6 975 70 5 Image Chart
2018 8 23 15 35.0 134.7 980 65 5 Image Chart
2018 8 23 18 36.5 135.1 985 60 4 Image Chart
2018 8 23 21 38.0 135.3 990 55 4 Image Chart
2018 8 24 00 39.2 136.2 990 50 4 Image Chart
2018 8 24 06 40.7 137.4 994 40 3 Image Chart
2018 8 24 12 41.7 139.7 1000 0 6 Image Chart
Japan Meteorological Agency Best Track Data | Correction Date : 2018-10-05
< Typhoon 201819 2018 Season Typhoon 201821 >

Help